ASN logo
ASN Wikibase Occurrence # 231881
Last updated: 15 June 2020
This information is added by users of ASN. Neither ASN nor the Flight Safety Foundation are responsible for the completeness or correctness of this information. If you feel this information is incomplete or incorrect, you can submit corrected information.

Date:02-JAN-2020
Time:18:12 UTC
Type:Silhouette image of generic C25C model; specific model in this crash may look slightly different
Cessna 525C Citation CJ4
Owner/operator:Private
Registration: N8GQ
C/n / msn: 525C0045
Fatalities:Fatalities: 0 / Occupants:
Other fatalities:0
Aircraft damage: Minor
Location:Heber City Municipal Airport, UT (HCR) -   United States of America
Phase: Landing
Nature:Unknown
Departure airport:Hayward Executive Airport, CA (HWD/KHWD)
Destination airport:Heber City Municipal Airport, UT (HCR)
Narrative:
A Cessna 525C Citation CJ4 suffered a runway excursion after landing on runway 22 at Heber City Municipal Airport, Utah, USA.

Weather reported about the incident time (1812Z):
KHCR 021835Z AUTO 00000KT 10SM SCT014 SCT050 00/M04 A2996 RMK AO2
KHCR 021815Z AUTO 31003KT 7SM BKN014 BKN021 M01/M04 A2997 RMK AO2
KHCR 021755Z AUTO 12003KT 10SM BKN014 OVC021 M01/M05 A2998 RMK AO2
KHCR 021735Z AUTO 10003KT 10SM OVC014 M01/M04 A2998 RMK AO2

Sources:

https://gephardtdaily.com/top-stories/heber-city-municipal-airport-closed-after-twin-engine-plane-slides-off-runway/
https://flightaware.com/live/flight/N8GQ/history/20200102/1500Z/KHWD/KHCR


Revision history:

Date/timeContributorUpdates
02-Jan-2020 20:37 harro Added
02-Jan-2020 20:38 harro Updated [Operator, Location, Destination airport, Narrative]
03-Jan-2020 15:53 harro Updated [Embed code]

Corrections or additions? ... Edit this accident description